SKW5397 KLAX-KSLC
Flight info
| Callsign | SKW5397 |
|---|---|
| Flight time | N/A |
| Altitude | 35000 |
| Route | ORCKA5 LAS Q70 BLIPP Q842 WINEN MLF PITTT2 |
| Aircraft | E75L/M-SDE3GILORVW/S |
Departure
| Time | 2026-05-08 05:19 |
|---|---|
| Airport | Los Angeles International Airport (KLAX) |
Arrival
| Time | N/A |
|---|---|
| Airport | Salt Lake City International Airport (KSLC) |
| Time | Latitude | Longitude | Altitude | Speed | Heading |
|---|---|---|---|---|---|
| 2026-05-08 04:54 | 33.94062 | -118.39771 | 111 ft | 0 kts | 83° |
| 2026-05-08 05:09 | 33.94062 | -118.39770 | 110 ft | 0 kts | 83° |
| 2026-05-08 05:10 | 33.94061 | -118.39775 | 110 ft | 2 kts | 83° |
| 2026-05-08 05:10 | 33.94058 | -118.39810 | 111 ft | 2 kts | 83° |
| 2026-05-08 05:10 | 33.94058 | -118.39823 | 111 ft | 1 kts | 124° |
| 2026-05-08 05:11 | 33.94067 | -118.39829 | 111 ft | 2 kts | 177° |
| 2026-05-08 05:11 | 33.94082 | -118.39831 | 111 ft | 2 kts | 173° |
| 2026-05-08 05:11 | 33.94087 | -118.39831 | 112 ft | 0 kts | 173° |
| 2026-05-08 05:14 | 33.94083 | -118.39831 | 112 ft | 1 kts | 173° |
| 2026-05-08 05:15 | 33.94062 | -118.39828 | 112 ft | 4 kts | 173° |
| 2026-05-08 05:15 | 33.94023 | -118.39824 | 112 ft | 7 kts | 176° |
| 2026-05-08 05:15 | 33.93949 | -118.39814 | 111 ft | 14 kts | 162° |
| 2026-05-08 05:15 | 33.93911 | -118.39689 | 109 ft | 20 kts | 84° |
| 2026-05-08 05:16 | 33.93930 | -118.39506 | 108 ft | 23 kts | 83° |
| 2026-05-08 05:16 | 33.93951 | -118.39298 | 105 ft | 25 kts | 82° |
| 2026-05-08 05:16 | 33.93973 | -118.39082 | 104 ft | 26 kts | 83° |
| 2026-05-08 05:16 | 33.93995 | -118.38857 | 102 ft | 27 kts | 83° |
| 2026-05-08 05:17 | 33.94008 | -118.38744 | 102 ft | 27 kts | 83° |
| 2026-05-08 05:17 | 33.94023 | -118.38592 | 102 ft | 27 kts | 81° |
| 2026-05-08 05:17 | 33.94054 | -118.38358 | 99 ft | 28 kts | 83° |
| 2026-05-08 05:17 | 33.94073 | -118.38125 | 99 ft | 21 kts | 85° |
| 2026-05-08 05:18 | 33.94075 | -118.38016 | 99 ft | 7 kts | 134° |
| 2026-05-08 05:18 | 33.94025 | -118.37991 | 99 ft | 8 kts | 182° |
| 2026-05-08 05:18 | 33.93980 | -118.38056 | 99 ft | 14 kts | 263° |
| 2026-05-08 05:18 | 33.93939 | -118.38462 | 101 ft | 86 kts | 263° |
| 2026-05-08 05:19 | 33.93838 | -118.39459 | 108 ft | 148 kts | 263° |
| 2026-05-08 05:19 | 33.93706 | -118.40780 | 542 ft | 162 kts | 263° |
| 2026-05-08 05:19 | 33.93557 | -118.42182 | 1108 ft | 177 kts | 263° |
| 2026-05-08 05:19 | 33.93405 | -118.43636 | 1812 ft | 180 kts | 264° |
| 2026-05-08 05:20 | 33.93235 | -118.45225 | 2187 ft | 204 kts | 260° |
| 2026-05-08 05:20 | 33.92540 | -118.46783 | 2642 ft | 223 kts | 233° |
| 2026-05-08 05:20 | 33.91552 | -118.48300 | 3239 ft | 236 kts | 234° |
| 2026-05-08 05:20 | 33.90470 | -118.49905 | 3673 ft | 259 kts | 232° |
| 2026-05-08 05:21 | 33.89291 | -118.51592 | 4258 ft | 273 kts | 232° |
| 2026-05-08 05:21 | 33.88053 | -118.53359 | 5098 ft | 277 kts | 233° |
| 2026-05-08 05:21 | 33.86796 | -118.55052 | 6004 ft | 278 kts | 222° |
| 2026-05-08 05:21 | 33.85027 | -118.55974 | 6835 ft | 286 kts | 188° |
| 2026-05-08 05:22 | 33.83054 | -118.55722 | 7606 ft | 290 kts | 168° |
| 2026-05-08 05:22 | 33.81084 | -118.55170 | 8353 ft | 292 kts | 168° |
| 2026-05-08 05:22 | 33.79101 | -118.54626 | 9036 ft | 295 kts | 168° |
| 2026-05-08 05:22 | 33.77091 | -118.54079 | 9696 ft | 298 kts | 167° |
| 2026-05-08 05:23 | 33.75077 | -118.53534 | 10331 ft | 301 kts | 167° |
| 2026-05-08 05:23 | 33.72997 | -118.52972 | 10842 ft | 309 kts | 167° |
| 2026-05-08 05:23 | 33.70938 | -118.52216 | 11224 ft | 318 kts | 149° |
| 2026-05-08 05:23 | 33.69300 | -118.50388 | 11593 ft | 325 kts | 120° |
| 2026-05-08 05:24 | 33.68438 | -118.47889 | 12030 ft | 331 kts | 108° |
| 2026-05-08 05:24 | 33.67685 | -118.45261 | 12498 ft | 337 kts | 108° |
| 2026-05-08 05:24 | 33.66906 | -118.42601 | 13039 ft | 340 kts | 108° |
| 2026-05-08 05:24 | 33.66116 | -118.39921 | 13609 ft | 342 kts | 109° |
| 2026-05-08 05:25 | 33.65323 | -118.37244 | 14181 ft | 344 kts | 108° |
| 2026-05-08 05:25 | 33.64579 | -118.34481 | 14701 ft | 346 kts | 98° |
| 2026-05-08 05:25 | 33.64462 | -118.31631 | 15190 ft | 348 kts | 89° |
| 2026-05-08 05:25 | 33.64460 | -118.28718 | 15687 ft | 352 kts | 89° |
| 2026-05-08 05:26 | 33.64460 | -118.25714 | 16206 ft | 354 kts | 89° |
| 2026-05-08 05:26 | 33.64460 | -118.22739 | 16708 ft | 357 kts | 89° |
| 2026-05-08 05:26 | 33.64630 | -118.19789 | 17179 ft | 358 kts | 73° |
| 2026-05-08 05:26 | 33.65754 | -118.17152 | 17647 ft | 357 kts | 48° |
| 2026-05-08 05:27 | 33.67618 | -118.15195 | 18133 ft | 358 kts | 37° |
| 2026-05-08 05:27 | 33.69602 | -118.13390 | 18623 ft | 360 kts | 37° |
| 2026-05-08 05:27 | 33.71626 | -118.11566 | 19086 ft | 362 kts | 37° |
| 2026-05-08 05:27 | 33.73658 | -118.09740 | 19547 ft | 365 kts | 36° |
| 2026-05-08 05:28 | 33.75680 | -118.07926 | 19980 ft | 368 kts | 36° |
| 2026-05-08 05:28 | 33.77755 | -118.06064 | 20449 ft | 369 kts | 36° |
| 2026-05-08 05:28 | 33.79793 | -118.04234 | 20858 ft | 372 kts | 37° |
| 2026-05-08 05:28 | 33.81889 | -118.02351 | 21269 ft | 375 kts | 37° |
| 2026-05-08 05:29 | 33.84010 | -118.00444 | 21697 ft | 377 kts | 37° |
| 2026-05-08 05:29 | 33.86115 | -117.98550 | 22133 ft | 378 kts | 37° |
| 2026-05-08 05:29 | 33.88211 | -117.96663 | 22538 ft | 380 kts | 37° |
| 2026-05-08 05:29 | 33.90319 | -117.94764 | 22941 ft | 382 kts | 37° |
| 2026-05-08 05:30 | 33.92458 | -117.92815 | 23321 ft | 384 kts | 37° |
| 2026-05-08 05:30 | 33.94602 | -117.90858 | 23691 ft | 387 kts | 37° |
| 2026-05-08 05:30 | 33.96735 | -117.88908 | 24044 ft | 389 kts | 37° |
| 2026-05-08 05:30 | 33.98907 | -117.86923 | 24409 ft | 392 kts | 37° |
| 2026-05-08 05:31 | 34.01074 | -117.84940 | 24772 ft | 394 kts | 37° |
| 2026-05-08 05:31 | 34.03259 | -117.82939 | 25127 ft | 396 kts | 37° |
| 2026-05-08 05:31 | 34.05470 | -117.80913 | 25500 ft | 398 kts | 37° |
| 2026-05-08 05:31 | 34.07678 | -117.78889 | 25847 ft | 400 kts | 37° |
| 2026-05-08 05:32 | 34.09706 | -117.76591 | 26167 ft | 402 kts | 49° |
| 2026-05-08 05:32 | 34.11469 | -117.74000 | 26522 ft | 404 kts | 50° |
| 2026-05-08 05:32 | 34.13253 | -117.71362 | 26835 ft | 407 kts | 50° |
| 2026-05-08 05:32 | 34.14994 | -117.68780 | 27167 ft | 408 kts | 50° |
| 2026-05-08 05:33 | 34.16849 | -117.66027 | 27486 ft | 411 kts | 50° |
| 2026-05-08 05:33 | 34.18636 | -117.63374 | 27803 ft | 413 kts | 50° |
| 2026-05-08 05:33 | 34.20454 | -117.60671 | 28160 ft | 414 kts | 50° |
| 2026-05-08 05:33 | 34.22275 | -117.57963 | 28489 ft | 415 kts | 50° |
| 2026-05-08 05:34 | 34.24089 | -117.55262 | 28806 ft | 417 kts | 50° |
| 2026-05-08 05:34 | 34.25926 | -117.52525 | 29110 ft | 419 kts | 50° |
| 2026-05-08 05:34 | 34.27758 | -117.49794 | 29398 ft | 421 kts | 50° |
| 2026-05-08 05:34 | 34.29597 | -117.47050 | 29673 ft | 423 kts | 50° |
| 2026-05-08 05:35 | 34.31436 | -117.44305 | 29942 ft | 425 kts | 50° |
| 2026-05-08 05:35 | 34.33298 | -117.41522 | 30235 ft | 426 kts | 50° |
| 2026-05-08 05:35 | 34.35173 | -117.38718 | 30504 ft | 428 kts | 50° |
| 2026-05-08 05:35 | 34.37035 | -117.35931 | 30773 ft | 430 kts | 50° |
| 2026-05-08 05:36 | 34.38924 | -117.33102 | 31043 ft | 431 kts | 50° |
| 2026-05-08 05:36 | 34.40796 | -117.30296 | 31279 ft | 433 kts | 50° |
| 2026-05-08 05:36 | 34.42707 | -117.27429 | 31535 ft | 435 kts | 50° |
| 2026-05-08 05:36 | 34.44593 | -117.24596 | 31770 ft | 437 kts | 50° |
| 2026-05-08 05:37 | 34.46497 | -117.21736 | 32001 ft | 438 kts | 50° |
| 2026-05-08 05:37 | 34.48396 | -117.18880 | 32226 ft | 440 kts | 50° |
| 2026-05-08 05:37 | 34.50331 | -117.15968 | 32462 ft | 441 kts | 50° |
| 2026-05-08 05:37 | 34.52261 | -117.13061 | 32703 ft | 442 kts | 50° |
| 2026-05-08 05:38 | 34.54186 | -117.10160 | 32919 ft | 444 kts | 50° |
| 2026-05-08 05:38 | 34.56140 | -117.07314 | 33117 ft | 445 kts | 49° |
| 2026-05-08 05:38 | 34.58145 | -117.04400 | 33333 ft | 446 kts | 49° |
| 2026-05-08 05:38 | 34.60131 | -117.01509 | 33561 ft | 447 kts | 49° |
| 2026-05-08 05:39 | 34.62107 | -116.98630 | 33772 ft | 448 kts | 49° |
| 2026-05-08 05:39 | 34.64083 | -116.95748 | 33981 ft | 449 kts | 49° |
| 2026-05-08 05:39 | 34.66082 | -116.92830 | 34224 ft | 449 kts | 49° |
| 2026-05-08 05:39 | 34.68080 | -116.89911 | 34500 ft | 449 kts | 49° |
| 2026-05-08 05:40 | 34.70068 | -116.87004 | 34760 ft | 449 kts | 49° |
| 2026-05-08 05:40 | 34.72064 | -116.84083 | 35038 ft | 448 kts | 49° |
| 2026-05-08 05:40 | 34.74026 | -116.81210 | 35085 ft | 441 kts | 49° |
| 2026-05-08 05:41 | 34.77947 | -116.75459 | 35106 ft | 446 kts | 49° |
| 2026-05-08 05:41 | 34.81880 | -116.69682 | 35076 ft | 446 kts | 49° |
| 2026-05-08 05:42 | 34.85827 | -116.63895 | 35053 ft | 443 kts | 46° |
| 2026-05-08 05:42 | 34.90011 | -116.58345 | 35027 ft | 444 kts | 46° |
| 2026-05-08 05:43 | 34.94161 | -116.52803 | 35013 ft | 444 kts | 46° |
| 2026-05-08 05:43 | 34.98326 | -116.47227 | 34996 ft | 444 kts | 46° |
| 2026-05-08 05:44 | 35.02460 | -116.41684 | 34986 ft | 445 kts | 46° |
| 2026-05-08 05:44 | 35.06622 | -116.36093 | 34984 ft | 445 kts | 46° |
| 2026-05-08 05:45 | 35.10773 | -116.30511 | 34985 ft | 443 kts | 46° |
| 2026-05-08 05:45 | 35.14910 | -116.24936 | 34997 ft | 443 kts | 46° |
| 2026-05-08 05:46 | 35.19039 | -116.19363 | 34994 ft | 442 kts | 46° |
| 2026-05-08 05:46 | 35.23145 | -116.13813 | 34994 ft | 442 kts | 46° |
| 2026-05-08 05:47 | 35.27275 | -116.08220 | 34984 ft | 443 kts | 46° |
| 2026-05-08 05:47 | 35.31409 | -116.02614 | 34978 ft | 443 kts | 46° |
| 2026-05-08 05:48 | 35.35524 | -115.97023 | 34993 ft | 443 kts | 46° |
| 2026-05-08 05:48 | 35.39634 | -115.91431 | 35020 ft | 443 kts | 46° |
| 2026-05-08 05:49 | 35.43769 | -115.85794 | 35045 ft | 442 kts | 46° |
| 2026-05-08 05:49 | 35.47866 | -115.80203 | 35063 ft | 443 kts | 46° |
| 2026-05-08 05:50 | 35.51967 | -115.74593 | 35072 ft | 443 kts | 46° |
| 2026-05-08 05:50 | 35.56077 | -115.68964 | 35082 ft | 444 kts | 46° |
| 2026-05-08 05:51 | 35.60192 | -115.63318 | 35090 ft | 443 kts | 46° |
| 2026-05-08 05:51 | 35.64307 | -115.57663 | 35099 ft | 443 kts | 46° |
| 2026-05-08 05:52 | 35.68384 | -115.52049 | 35112 ft | 442 kts | 46° |
| 2026-05-08 05:52 | 35.72504 | -115.46368 | 35110 ft | 444 kts | 46° |
| 2026-05-08 05:53 | 35.76588 | -115.40725 | 35090 ft | 442 kts | 46° |
| 2026-05-08 05:53 | 35.80671 | -115.35074 | 35062 ft | 444 kts | 46° |
| 2026-05-08 05:54 | 35.84772 | -115.29390 | 35027 ft | 443 kts | 46° |
| 2026-05-08 05:54 | 35.88865 | -115.23705 | 34992 ft | 444 kts | 46° |
| 2026-05-08 05:55 | 35.92925 | -115.18057 | 34980 ft | 444 kts | 46° |
| 2026-05-08 05:55 | 35.97013 | -115.12363 | 34981 ft | 444 kts | 46° |
| 2026-05-08 05:56 | 36.01113 | -115.06640 | 34970 ft | 444 kts | 46° |
| 2026-05-08 05:56 | 36.05180 | -115.00955 | 34968 ft | 444 kts | 46° |
| 2026-05-08 05:57 | 36.09246 | -114.95259 | 34958 ft | 443 kts | 46° |
| 2026-05-08 05:57 | 36.13332 | -114.89529 | 34962 ft | 444 kts | 46° |
| 2026-05-08 05:58 | 36.17450 | -114.83919 | 34961 ft | 441 kts | 40° |
| 2026-05-08 05:58 | 36.22532 | -114.79737 | 34993 ft | 439 kts | 26° |
| 2026-05-08 05:59 | 36.27899 | -114.76230 | 34996 ft | 438 kts | 26° |
| 2026-05-08 05:59 | 36.33300 | -114.72654 | 34992 ft | 438 kts | 26° |
| 2026-05-08 06:00 | 36.38671 | -114.69088 | 34988 ft | 438 kts | 26° |
| 2026-05-08 06:00 | 36.44046 | -114.65515 | 34984 ft | 438 kts | 26° |
| 2026-05-08 06:01 | 36.49425 | -114.61932 | 34973 ft | 438 kts | 26° |
| 2026-05-08 06:01 | 36.54774 | -114.58364 | 34972 ft | 437 kts | 26° |
| 2026-05-08 06:02 | 36.60109 | -114.54800 | 34979 ft | 437 kts | 26° |
| 2026-05-08 06:02 | 36.65500 | -114.51193 | 34995 ft | 438 kts | 26° |
| 2026-05-08 06:03 | 36.70824 | -114.47624 | 35009 ft | 437 kts | 26° |
| 2026-05-08 06:03 | 36.76007 | -114.43617 | 35012 ft | 439 kts | 30° |
| 2026-05-08 06:04 | 36.81168 | -114.39562 | 35021 ft | 438 kts | 30° |
| 2026-05-08 06:04 | 36.86321 | -114.35517 | 35030 ft | 438 kts | 30° |
| 2026-05-08 06:05 | 36.91477 | -114.31463 | 35030 ft | 439 kts | 30° |
| 2026-05-08 06:05 | 36.96646 | -114.27393 | 35028 ft | 439 kts | 30° |
| 2026-05-08 06:06 | 37.01787 | -114.23338 | 35022 ft | 438 kts | 30° |
| 2026-05-08 06:06 | 37.06940 | -114.19267 | 35041 ft | 437 kts | 30° |
| 2026-05-08 06:07 | 37.12074 | -114.15204 | 35050 ft | 436 kts | 30° |
| 2026-05-08 06:07 | 37.17162 | -114.11172 | 35061 ft | 436 kts | 30° |
| 2026-05-08 06:08 | 37.22299 | -114.07093 | 35079 ft | 436 kts | 30° |
| 2026-05-08 06:08 | 37.27422 | -114.03020 | 35103 ft | 436 kts | 30° |
| 2026-05-08 06:09 | 37.32511 | -113.98966 | 35152 ft | 435 kts | 30° |
| 2026-05-08 06:09 | 37.37627 | -113.94886 | 35173 ft | 436 kts | 30° |
| 2026-05-08 06:10 | 37.42745 | -113.90796 | 35201 ft | 436 kts | 30° |
| 2026-05-08 06:10 | 37.47829 | -113.86726 | 35208 ft | 436 kts | 30° |
| 2026-05-08 06:11 | 37.52960 | -113.82613 | 35216 ft | 436 kts | 30° |
| 2026-05-08 06:11 | 37.58048 | -113.78527 | 35218 ft | 436 kts | 30° |
| 2026-05-08 06:12 | 37.63138 | -113.74433 | 35222 ft | 434 kts | 30° |
| 2026-05-08 06:12 | 37.68235 | -113.70327 | 35220 ft | 436 kts | 30° |
| 2026-05-08 06:13 | 37.73350 | -113.66200 | 35212 ft | 437 kts | 30° |
| 2026-05-08 06:13 | 37.78450 | -113.62077 | 35210 ft | 436 kts | 30° |
| 2026-05-08 06:14 | 37.83565 | -113.57935 | 35212 ft | 437 kts | 30° |
| 2026-05-08 06:14 | 37.88664 | -113.53799 | 35224 ft | 436 kts | 29° |
| 2026-05-08 06:15 | 37.93704 | -113.49541 | 35219 ft | 438 kts | 36° |
| 2026-05-08 06:15 | 37.98264 | -113.44428 | 35228 ft | 441 kts | 38° |
| 2026-05-08 06:16 | 38.02844 | -113.39236 | 35232 ft | 441 kts | 38° |
| 2026-05-08 06:16 | 38.07404 | -113.34056 | 35227 ft | 441 kts | 38° |
| 2026-05-08 06:17 | 38.14212 | -113.26308 | 35230 ft | 440 kts | 38° |
| 2026-05-08 06:17 | 38.18774 | -113.21104 | 35223 ft | 440 kts | 38° |
| 2026-05-08 06:18 | 38.23331 | -113.15897 | 35227 ft | 440 kts | 38° |
| 2026-05-08 06:18 | 38.27863 | -113.10709 | 35200 ft | 439 kts | 38° |
| 2026-05-08 06:19 | 38.32391 | -113.05518 | 35157 ft | 439 kts | 38° |
| 2026-05-08 06:19 | 38.37206 | -113.00801 | 35102 ft | 433 kts | 25° |
| 2026-05-08 06:20 | 38.42673 | -112.97787 | 35064 ft | 429 kts | 19° |
| 2026-05-08 06:20 | 38.48206 | -112.94849 | 35110 ft | 430 kts | 19° |
| 2026-05-08 06:21 | 38.53718 | -112.91908 | 35154 ft | 430 kts | 19° |
| 2026-05-08 06:21 | 38.59237 | -112.88958 | 35206 ft | 429 kts | 19° |
| 2026-05-08 06:22 | 38.64755 | -112.86003 | 35213 ft | 429 kts | 19° |
| 2026-05-08 06:22 | 38.70284 | -112.83038 | 35204 ft | 429 kts | 19° |
| 2026-05-08 06:23 | 38.75751 | -112.80100 | 35196 ft | 428 kts | 19° |
| 2026-05-08 06:23 | 38.81234 | -112.77150 | 35192 ft | 428 kts | 19° |
| 2026-05-08 06:24 | 38.86737 | -112.74184 | 35175 ft | 428 kts | 19° |
| 2026-05-08 06:24 | 38.92185 | -112.71241 | 35160 ft | 427 kts | 19° |
| 2026-05-08 06:25 | 38.97680 | -112.68269 | 35155 ft | 427 kts | 19° |
| 2026-05-08 06:25 | 39.03118 | -112.65323 | 35156 ft | 427 kts | 19° |
| 2026-05-08 06:26 | 39.08571 | -112.62363 | 35152 ft | 428 kts | 19° |
| 2026-05-08 06:26 | 39.14020 | -112.59400 | 35156 ft | 421 kts | 19° |
| 2026-05-08 06:27 | 39.19346 | -112.56499 | 35160 ft | 414 kts | 18° |
| 2026-05-08 06:27 | 39.24642 | -112.53612 | 34853 ft | 416 kts | 19° |
| 2026-05-08 06:28 | 39.27297 | -112.52161 | 34393 ft | 415 kts | 19° |
| 2026-05-08 06:28 | 39.29952 | -112.50741 | 33899 ft | 414 kts | 15° |
| 2026-05-08 06:28 | 39.32711 | -112.49725 | 33462 ft | 413 kts | 10° |
| 2026-05-08 06:28 | 39.35488 | -112.48815 | 32988 ft | 416 kts | 11° |
| 2026-05-08 06:29 | 39.38317 | -112.47881 | 32519 ft | 417 kts | 11° |
| 2026-05-08 06:29 | 39.41094 | -112.46961 | 32061 ft | 417 kts | 11° |
| 2026-05-08 06:29 | 39.43928 | -112.46021 | 31605 ft | 419 kts | 11° |
| 2026-05-08 06:29 | 39.46747 | -112.45086 | 31186 ft | 421 kts | 11° |
| 2026-05-08 06:30 | 39.49598 | -112.44138 | 30715 ft | 422 kts | 11° |
| 2026-05-08 06:30 | 39.52422 | -112.43199 | 30271 ft | 421 kts | 11° |
| 2026-05-08 06:30 | 39.55254 | -112.42258 | 29824 ft | 418 kts | 11° |
| 2026-05-08 06:30 | 39.58033 | -112.41331 | 29378 ft | 416 kts | 11° |
| 2026-05-08 06:31 | 39.60830 | -112.40399 | 28925 ft | 414 kts | 11° |
| 2026-05-08 06:31 | 39.63610 | -112.39472 | 28473 ft | 413 kts | 11° |
| 2026-05-08 06:31 | 39.66385 | -112.38545 | 28018 ft | 410 kts | 11° |
| 2026-05-08 06:31 | 39.69142 | -112.37624 | 27568 ft | 408 kts | 11° |
| 2026-05-08 06:32 | 39.71876 | -112.36710 | 27122 ft | 405 kts | 11° |
| 2026-05-08 06:32 | 39.74581 | -112.35805 | 26677 ft | 404 kts | 12° |
| 2026-05-08 06:32 | 39.77318 | -112.34888 | 26236 ft | 401 kts | 12° |
| 2026-05-08 06:32 | 39.79989 | -112.33992 | 25796 ft | 400 kts | 12° |
| 2026-05-08 06:33 | 39.82692 | -112.33085 | 25353 ft | 398 kts | 12° |
| 2026-05-08 06:33 | 39.85361 | -112.32189 | 24917 ft | 397 kts | 12° |
| 2026-05-08 06:33 | 39.88015 | -112.31297 | 24484 ft | 395 kts | 13° |
| 2026-05-08 06:33 | 39.90670 | -112.30404 | 24044 ft | 393 kts | 13° |
| 2026-05-08 06:34 | 39.93308 | -112.29516 | 23613 ft | 392 kts | 13° |